Todos
Faith Ranch Airport (Carrizo Springs, TX) XA89 Condições meteorológicas
There is no TAF data available at XA89 or any nearby airports.
There is no METAR data available at XA89. Showing METAR data for KCZT (25 mi NE).
Histórico recente de METAR CZT (sem dados para XA89)
| Date | Time (CDT) | Flight Rules | Wind Dir. | Speed | Type | Height AGL (ft) | Visibility | Temp (°C) | Temp (°F) | Dew Point (°C) | Dew Point (°F) | Rel. Humid. | Pressure | Density Altitude | Remarks |
|---|---|---|---|---|---|---|---|---|---|---|---|---|---|---|---|
| 03-Mai | 16:55 | VFR | 150° | 4 kt | 10 miles | 28° | 82° | 9° | 48° | 30% | 30.04 in Hg | 2.038 ft | |||
| 03-Mai | 16:15 | VFR | 160° | 9 kt | 10 miles | 28° | 82° | 9° | 48° | 30% | 30.07 in Hg | 2.008 ft | |||
| 03-Mai | 15:55 | VFR | 120° | 8 kt | 10 miles | 27° | 80° | 8° | 46° | 30% | 30.08 in Hg | 1.878 ft | |||
| 03-Mai | 15:15 | VFR | 170° | 6 kt | 10 miles | 27° | 80° | 8° | 46° | 30% | 30.11 in Hg | 1.848 ft | |||
| 03-Mai | 14:55 | VFR | 150° | 8 kt | 10 miles | 27° | 80° | 9° | 48° | 32% | 30.12 in Hg | 1.838 ft | |||
| 03-Mai | 14:35 | VFR | 180° | 5 kt | 10 miles | 27° | 80° | 9° | 48° | 32% | 30.13 in Hg | 1.828 ft | |||
| 03-Mai | 14:15 | VFR | 140° | 8 kt | 10 miles | 27° | 80° | 10° | 50° | 34% | 30.14 in Hg | 1.818 ft | |||
| 03-Mai | 13:55 | VFR | 140° | 7 kt | 10 miles | 26° | 78° | 9° | 48° | 34% | 30.15 in Hg | 1.688 ft | |||
| 03-Mai | 13:35 | VFR | 200° | 3 kt | 10 miles | 26° | 78° | 10° | 50° | 37% | 30.17 in Hg | 1.668 ft | |||
| 03-Mai | 13:15 | VFR | 140° | 6 kt | 10 miles | 26° | 78° | 10° | 50° | 37% | 30.17 in Hg | 1.668 ft | |||
| 03-Mai | 12:55 | VFR | 190° | 7 kt | 10 miles | 25° | 77° | 10° | 50° | 39% | 30.19 in Hg | 1.528 ft | |||
| 03-Mai | 12:35 | VFR | 130° | 8 kt | 10 miles | 25° | 77° | 10° | 50° | 39% | 30.20 in Hg | 1.518 ft | |||
| 03-Mai | 12:15 | VFR | 180° | 7 kt | 10 miles | 25° | 77° | 10° | 50° | 39% | 30.21 in Hg | 1.508 ft | Wind gusting to 16 KT | ||
| 03-Mai | 11:55 | VFR | 170° | 7 kt | 10 miles | 24° | 75° | 11° | 51° | 44% | 30.21 in Hg | 1.388 ft | |||
| 03-Mai | 11:35 | VFR | 180° | 7 kt | 10 miles | 23° | 73° | 11° | 51° | 47% | 30.22 in Hg | 1.258 ft | |||
| 03-Mai | 11:15 | VFR | 130° | 8 kt | 10 miles | 23° | 73° | 10° | 50° | 44% | 30.22 in Hg | 1.258 ft | |||
| 03-Mai | 10:55 | VFR | 180° | 8 kt | 10 miles | 22° | 71° | 11° | 51° | 50% | 30.23 in Hg | 1.128 ft | |||
| 03-Mai | 10:15 | VFR | 140° | 6 kt | 10 miles | 21° | 69° | 12° | 53° | 56% | 30.24 in Hg | 998 ft | |||
| 03-Mai | 09:55 | VFR | 160° | 3 kt | 10 miles | 20° | 68° | 12° | 53° | 60% | 30.24 in Hg | 878 ft | |||
| 03-Mai | 09:15 | VFR | 160° | 3 kt | 10 miles | 18° | 64° | 15° | 59° | 83% | 30.22 in Hg | 658 ft | |||
| 03-Mai | 08:55 | VFR | 190° | 3 kt | 10 miles | 16° | 60° | 16° | 60° | 100% | 30.23 in Hg | 408 ft | |||
| 03-Mai | 08:35 | VFR | Calm | 10 miles | 15° | 59° | 15° | 59° | 100% | 30.23 in Hg | 288 ft | ||||
| 03-Mai | 08:15 | VFR | Calm | 10 miles | 14° | 57° | 14° | 57° | 100% | 30.22 in Hg | 178 ft | ||||
| 03-Mai | 07:55 | VFR | Calm | 10 miles | 13° | 55° | 13° | 55° | 100% | 30.20 in Hg | 78 ft |
Entrar
| Seu navegador não suporta. atualize seu navegador |
